createdAt,value
2023-05-18T00:02:08.871Z,8.89
2023-05-18T00:07:16.279Z,8.87
2023-05-18T00:12:23.730Z,8.84
2023-05-18T00:17:32.252Z,8.80
2023-05-18T00:22:43.026Z,8.82
2023-05-18T00:27:52.359Z,8.84
2023-05-18T00:33:00.366Z,8.83
2023-05-18T00:38:07.785Z,8.81
2023-05-18T00:43:15.434Z,8.83
2023-05-18T00:48:22.747Z,8.86
2023-05-18T00:53:31.485Z,8.88
2023-05-18T00:58:39.563Z,8.87
2023-05-18T01:03:47.214Z,8.82
2023-05-18T01:08:55.311Z,8.75
2023-05-18T01:14:12.248Z,8.71
2023-05-18T01:20:01.805Z,8.71
2023-05-18T01:25:17.848Z,8.66
2023-05-18T01:30:25.876Z,8.60
2023-05-18T01:35:33.122Z,8.60
2023-05-18T01:40:49.584Z,8.61
2023-05-18T01:46:03.423Z,8.61
2023-05-18T01:51:15.423Z,8.61
2023-05-18T01:56:23.850Z,8.56
2023-05-18T02:13:29.681Z,8.57
2023-05-18T02:18:35.841Z,8.57
2023-05-18T02:23:40.257Z,8.57
2023-05-18T02:28:44.144Z,8.58
2023-05-18T02:33:48.205Z,8.60
2023-05-18T02:38:52.039Z,8.56
2023-05-18T02:43:56.181Z,8.52
2023-05-18T02:49:01.522Z,8.51
2023-05-18T02:54:07.200Z,8.57
2023-05-18T02:59:11.453Z,8.55
2023-05-18T03:04:16.799Z,8.44
2023-05-18T03:09:20.908Z,8.41
2023-05-18T03:14:24.735Z,8.40
2023-05-18T03:19:29.393Z,8.41
2023-05-18T03:24:40.187Z,8.37
2023-05-18T03:29:45.336Z,8.35
2023-05-18T03:34:50.775Z,8.34
2023-05-18T03:39:55.346Z,8.37
2023-05-18T03:44:59.593Z,8.37
2023-05-18T03:50:04.239Z,8.37
2023-05-18T03:55:11.815Z,8.38
2023-05-18T04:00:18.422Z,8.29
2023-05-18T04:05:22.419Z,8.19
2023-05-18T04:10:26.603Z,8.17
2023-05-18T04:15:33.295Z,8.17
2023-05-18T04:20:38.195Z,8.16
2023-05-18T04:25:43.458Z,8.13
2023-05-18T04:30:47.545Z,8.02
2023-05-18T04:35:54.683Z,7.99
2023-05-18T04:41:00.195Z,8.01
2023-05-18T04:46:06.760Z,8.02
2023-05-18T04:51:11.373Z,8.04
2023-05-18T04:56:15.205Z,8.07
2023-05-18T05:01:19.514Z,8.09
2023-05-18T05:06:23.360Z,8.15
2023-05-18T05:11:27.212Z,8.17
2023-05-18T05:16:31.273Z,8.12
2023-05-18T05:21:35.836Z,8.11
2023-05-18T05:26:39.712Z,8.04
2023-05-18T05:31:43.689Z,7.89
2023-05-18T05:36:47.626Z,7.82
2023-05-18T05:41:51.620Z,7.80
2023-05-18T05:46:55.838Z,7.81
2023-05-18T05:52:00.326Z,7.78
2023-05-18T05:57:04.365Z,7.71
2023-05-18T06:02:08.224Z,7.63
2023-05-18T06:07:12.425Z,7.61
2023-05-18T06:12:16.261Z,7.61
2023-05-18T06:17:20.566Z,7.66
2023-05-18T06:22:25.093Z,7.76
2023-05-18T06:27:30.059Z,7.83
2023-05-18T06:32:33.936Z,7.81
2023-05-18T06:37:37.823Z,7.80
2023-05-18T06:42:41.856Z,7.77
2023-05-18T06:47:46.165Z,7.74
2023-05-18T06:52:51.430Z,7.69
2023-05-18T06:57:57.965Z,7.67
2023-05-18T07:03:03.122Z,7.76
2023-05-18T07:08:07.235Z,7.74
2023-05-18T07:13:12.023Z,7.71
2023-05-18T07:18:16.015Z,7.72
2023-05-18T07:23:20.786Z,7.69
2023-05-18T07:28:24.693Z,7.74
2023-05-18T07:33:28.977Z,7.85
2023-05-18T07:38:32.901Z,7.89
2023-05-18T07:43:36.865Z,7.89
2023-05-18T07:48:41.201Z,7.91
2023-05-18T07:53:46.188Z,7.95
2023-05-18T08:04:36.237Z,7.97
2023-05-18T08:09:44.782Z,8.01
2023-05-18T08:14:52.418Z,8.07
2023-05-18T08:20:00.281Z,8.12
2023-05-18T08:25:10.690Z,8.13
2023-05-18T08:30:21.837Z,8.15
2023-05-18T08:35:29.750Z,8.20
2023-05-18T08:40:49.802Z,8.27
2023-05-18T08:46:05.890Z,8.31
2023-05-18T08:51:14.712Z,8.18
2023-05-18T08:56:23.888Z,8.03
2023-05-18T09:01:31.667Z,8.03
2023-05-18T09:06:39.635Z,8.15
2023-05-18T09:11:48.457Z,8.19
2023-05-18T09:16:56.534Z,8.09
2023-05-18T09:22:04.560Z,7.98
2023-05-18T09:27:14.203Z,8.02
2023-05-18T09:32:22.061Z,8.01
2023-05-18T09:37:30.565Z,7.90
2023-05-18T09:42:42.316Z,7.91
2023-05-18T09:47:51.618Z,7.91
2023-05-18T09:52:59.311Z,7.95
2023-05-18T09:58:09.093Z,7.96
2023-05-18T10:03:24.343Z,8.07
2023-05-18T10:08:32.011Z,8.16
2023-05-18T10:13:43.026Z,8.22
2023-05-18T10:18:51.170Z,8.19
2023-05-18T10:23:59.574Z,8.26
2023-05-18T10:29:08.409Z,8.38
2023-05-18T10:34:18.980Z,8.35
2023-05-18T10:39:28.091Z,8.24
2023-05-18T10:44:37.722Z,8.21
2023-05-18T10:49:48.790Z,8.11
2023-05-18T10:54:56.886Z,8.09
2023-05-18T11:00:06.227Z,8.12
2023-05-18T11:05:15.186Z,8.18
2023-05-18T11:10:23.026Z,8.17
2023-05-18T11:16:06.850Z,8.16
2023-05-18T11:21:51.764Z,8.12
2023-05-18T11:27:00.727Z,8.17
2023-05-18T11:32:30.660Z,8.19
2023-05-18T11:37:54.439Z,8.26
2023-05-18T11:43:02.612Z,8.34
2023-05-18T11:48:12.649Z,8.36
2023-05-18T11:53:21.011Z,8.36
2023-05-18T11:58:31.697Z,8.31
2023-05-18T12:03:41.532Z,8.24
2023-05-18T12:08:49.379Z,8.24
2023-05-18T12:13:58.102Z,8.26
2023-05-18T12:19:05.483Z,8.28
2023-05-18T12:24:13.814Z,8.31
2023-05-18T12:29:23.775Z,8.37
2023-05-18T12:34:32.974Z,8.44
2023-05-18T12:39:40.590Z,8.50
2023-05-18T12:44:48.355Z,8.50
2023-05-18T12:49:55.846Z,8.42
2023-05-18T12:55:03.802Z,8.37
2023-05-18T13:00:17.530Z,8.32
2023-05-18T13:05:28.529Z,8.31
2023-05-18T13:10:36.541Z,8.36
2023-05-18T13:15:44.827Z,8.44
2023-05-18T13:20:56.659Z,8.53
2023-05-18T13:26:04.188Z,8.55
2023-05-18T13:31:12.943Z,8.55
2023-05-18T13:36:21.569Z,8.59
2023-05-18T13:41:29.170Z,8.57
2023-05-18T13:46:38.674Z,8.53
2023-05-18T13:51:46.413Z,8.52
2023-05-18T13:56:54.778Z,8.57
2023-05-18T14:02:02.564Z,8.61
2023-05-18T14:07:11.306Z,8.66
2023-05-18T14:12:20.084Z,8.71
2023-05-18T14:17:30.072Z,8.77
2023-05-18T14:22:37.856Z,8.77
2023-05-18T14:27:46.005Z,8.73
2023-05-18T14:32:53.399Z,8.70
2023-05-18T14:38:00.849Z,8.68
2023-05-18T14:43:08.160Z,8.68
2023-05-18T14:53:51.487Z,8.72
2023-05-18T14:58:58.926Z,8.73
2023-05-18T15:04:06.668Z,8.77
2023-05-18T15:09:15.335Z,8.75
2023-05-18T15:14:22.919Z,8.70
2023-05-18T15:19:30.651Z,8.66
2023-05-18T15:24:38.203Z,8.68
2023-05-18T15:29:46.932Z,8.70
2023-05-18T15:34:54.613Z,8.73
2023-05-18T15:40:02.589Z,8.74
2023-05-18T15:45:11.873Z,8.79
2023-05-18T15:50:19.745Z,8.85
2023-05-18T15:55:27.710Z,8.84
2023-05-18T16:00:35.884Z,8.81
2023-05-18T16:05:45.266Z,8.84
2023-05-18T16:10:54.287Z,8.85
2023-05-18T16:16:02.126Z,8.85
2023-05-18T16:21:11.277Z,8.83
2023-05-18T16:26:19.206Z,8.81
2023-05-18T16:31:27.114Z,8.79
2023-05-18T16:36:34.840Z,8.77
2023-05-18T16:41:42.580Z,8.77
2023-05-18T16:46:50.230Z,8.77
2023-05-18T16:51:57.879Z,8.80
2023-05-18T16:57:06.421Z,8.79
2023-05-18T17:02:14.608Z,8.79
2023-05-18T17:07:23.003Z,8.81
2023-05-18T17:12:31.031Z,8.79
2023-05-18T17:17:40.017Z,8.74
2023-05-18T17:22:49.403Z,8.76
2023-05-18T17:27:59.019Z,8.76
2023-05-18T17:33:06.832Z,8.70
2023-05-18T17:38:17.601Z,8.67
2023-05-18T17:43:25.010Z,8.65
2023-05-18T17:48:32.577Z,8.62
2023-05-18T17:53:43.088Z,8.60
2023-05-18T17:58:50.830Z,8.55
2023-05-18T18:03:58.794Z,8.54
2023-05-18T18:09:06.974Z,8.52
2023-05-18T18:14:17.951Z,8.47
2023-05-18T18:19:26.850Z,8.46
2023-05-18T18:24:34.584Z,8.52
2023-05-18T18:29:42.143Z,8.52
2023-05-18T18:34:49.591Z,8.48
2023-05-18T18:39:57.352Z,8.48
2023-05-18T18:45:04.918Z,8.55
2023-05-18T18:50:13.587Z,8.61
2023-05-18T18:55:23.068Z,8.63
2023-05-18T19:00:30.248Z,8.65
2023-05-18T19:05:37.677Z,8.70
2023-05-18T19:10:45.732Z,8.76
2023-05-18T19:15:52.992Z,8.81
2023-05-18T19:21:01.606Z,8.84
2023-05-18T19:26:10.652Z,8.87
2023-05-18T19:31:17.834Z,8.90
2023-05-18T19:36:25.177Z,8.94
2023-05-18T19:41:32.509Z,8.90
2023-05-18T19:54:48.236Z,8.84
2023-05-18T19:59:55.648Z,8.86
2023-05-18T20:05:04.372Z,8.90
2023-05-18T20:10:12.389Z,8.93
2023-05-18T20:15:20.143Z,8.92
2023-05-18T20:20:31.064Z,8.89
2023-05-18T20:25:38.741Z,8.87
2023-05-18T20:30:47.245Z,8.88
2023-05-18T20:35:54.937Z,8.86
2023-05-18T20:41:02.540Z,8.82
2023-05-18T20:49:25.122Z,8.79
2023-05-18T20:54:34.609Z,8.75
2023-05-18T20:59:42.049Z,8.76
2023-05-18T21:04:54.632Z,8.79
2023-05-18T21:10:02.745Z,8.85
2023-05-18T21:15:11.881Z,8.87
2023-05-18T21:20:19.553Z,8.89
2023-05-18T21:25:27.524Z,8.89
2023-05-18T21:30:34.824Z,8.91
2023-05-18T21:35:43.011Z,8.89
2023-05-18T21:40:50.486Z,8.83
2023-05-18T21:54:45.445Z,8.77
2023-05-18T21:59:53.738Z,8.75
2023-05-18T22:05:01.592Z,8.76
2023-05-18T22:10:11.839Z,8.74
2023-05-18T22:15:22.690Z,8.74
2023-05-18T22:20:32.142Z,8.74
2023-05-18T22:25:40.196Z,8.78
2023-05-18T22:30:48.014Z,8.76
2023-05-18T22:35:55.602Z,8.75
2023-05-18T22:41:03.120Z,8.72
2023-05-18T22:46:11.208Z,8.67
2023-05-18T22:51:19.246Z,8.61
2023-05-18T22:56:27.802Z,8.56
2023-05-18T23:01:38.030Z,8.57
2023-05-18T23:06:49.015Z,8.62
2023-05-18T23:11:56.765Z,8.67
2023-05-18T23:17:05.004Z,8.71
2023-05-18T23:22:12.268Z,8.69
2023-05-18T23:27:20.753Z,8.68
2023-05-18T23:32:30.058Z,8.69
2023-05-18T23:37:41.807Z,8.67
2023-05-18T23:42:50.059Z,8.67
2023-05-18T23:53:36.461Z,8.59
2023-05-18T23:58:46.373Z,8.56
